EDXW/GWT METAR and TAF weather

Enter ICAO airport designator
Station Type Date Time Source
EDXW METAR 2019/12/12 11:50 UTC NOAA

EDXW 121150Z 23006KT 9999 VCSH SCT014TCU 06/05 Q0995


Station Type Date Time Source
EDXW Decoded METAR 2019/12/12 11:50 UTC NOAA

Westerland / Sylt, Germany (EDXW) 54-55N 008-21E 20M
Dec 12, 2019 - 06:50 AM EST / 2019.12.12 1150 UTC
Wind: from the SW (230 degrees) at 7 MPH (6 KT):0
Visibility: greater than 7 mile(s):0
Sky conditions: partly cloudy
Weather: showers in the vicinity; Towering cumulus clouds observed
Temperature: 42 F (6 C)
Dew Point: 41 F (5 C)
Relative Humidity: 93%
Pressure (altimeter): 29.38 in. Hg (0995 hPa)
ob: EDXW 121150Z 23006KT 9999 VCSH SCT014TCU 06/05 Q0995
cycle: 12

Station Type Date Time Source
EDXW TAF 2009/07/07 14:00 UTC NOAA

TAF EDXW 071400Z 0715/0719 22015G25KT 9999 SCT020

Example: see airport list